createdAt,value
2017-08-29T00:00:51.080Z,53.51
2017-08-29T00:01:51.112Z,53.41
2017-08-29T00:03:44.585Z,53.39
2017-08-29T00:04:44.617Z,53.09
2017-08-29T00:06:39.104Z,53.00
2017-08-29T00:07:39.120Z,53.58
2017-08-29T00:09:33.601Z,53.19
2017-08-29T00:10:33.617Z,52.91
2017-08-29T00:12:28.110Z,53.77
2017-08-29T00:13:28.129Z,53.67
2017-08-29T00:15:22.617Z,53.39
2017-08-29T00:16:22.641Z,53.09
2017-08-29T00:18:17.090Z,53.29
2017-08-29T00:19:25.753Z,53.36
2017-08-29T00:21:11.609Z,53.65
2017-08-29T00:22:11.641Z,54.13
2017-08-29T00:24:08.740Z,53.45
2017-08-29T00:25:08.786Z,53.67
2017-08-29T00:27:03.242Z,54.13
2017-08-29T00:28:03.250Z,53.84
2017-08-29T00:29:57.706Z,53.65
2017-08-29T00:30:57.762Z,53.55
2017-08-29T00:32:52.250Z,54.22
2017-08-29T00:33:52.242Z,54.32
2017-08-29T00:35:46.707Z,54.22
2017-08-29T00:36:46.886Z,53.55
2017-08-29T00:38:41.210Z,54.61
2017-08-29T00:39:41.234Z,54.52
2017-08-29T00:41:35.871Z,54.71
2017-08-29T00:42:35.754Z,54.42
2017-08-29T00:44:29.258Z,54.61
2017-08-29T00:45:29.235Z,54.80
2017-08-29T00:47:23.715Z,54.90
2017-08-29T00:48:23.746Z,54.80
2017-08-29T00:50:18.227Z,55.09
2017-08-29T00:51:18.235Z,55.09
2017-08-29T00:53:12.747Z,54.90
2017-08-29T00:54:12.755Z,55.67
2017-08-29T00:56:07.203Z,54.90
2017-08-29T00:57:07.235Z,54.71
2017-08-29T00:59:01.723Z,55.09
2017-08-29T01:00:01.741Z,54.61
2017-08-29T01:01:56.204Z,55.00
2017-08-29T01:02:56.251Z,55.38
2017-08-29T01:04:50.723Z,55.09
2017-08-29T01:05:50.747Z,55.48
2017-08-29T01:07:45.202Z,54.90
2017-08-29T01:08:45.259Z,55.48
2017-08-29T01:10:38.739Z,55.55
2017-08-29T01:11:38.771Z,55.19
2017-08-29T01:13:33.377Z,55.67
2017-08-29T01:14:33.271Z,55.77
2017-08-29T01:16:26.756Z,55.87
2017-08-29T01:17:26.788Z,55.48
2017-08-29T01:19:21.268Z,55.77
2017-08-29T01:20:21.284Z,55.77
2017-08-29T01:22:15.740Z,55.83
2017-08-29T01:23:15.780Z,56.03
2017-08-29T01:25:10.252Z,55.83
2017-08-29T01:26:10.268Z,56.03
2017-08-29T01:28:04.781Z,55.83
2017-08-29T01:29:04.781Z,55.93
2017-08-29T01:30:59.485Z,55.93
2017-08-29T01:31:59.533Z,56.03
2017-08-29T01:33:53.997Z,56.90
2017-08-29T01:34:54.014Z,56.60
2017-08-29T01:36:48.605Z,56.90
2017-08-29T01:37:48.525Z,56.90
2017-08-29T01:39:42.973Z,56.60
2017-08-29T01:40:43.022Z,56.70
2017-08-29T01:42:37.686Z,57.28
2017-08-29T01:43:37.702Z,56.41
2017-08-29T01:45:32.166Z,56.51
2017-08-29T01:46:32.230Z,57.28
2017-08-29T01:48:26.902Z,56.80
2017-08-29T01:49:26.702Z,56.41
2017-08-29T01:51:21.150Z,57.18
2017-08-29T01:52:21.214Z,56.99
2017-08-29T01:54:15.678Z,57.47
2017-08-29T01:55:15.702Z,57.18
2017-08-29T01:57:10.151Z,57.37
2017-08-29T01:58:18.886Z,57.18
2017-08-29T02:00:03.702Z,57.28
2017-08-29T02:01:03.703Z,56.90
2017-08-29T02:02:57.160Z,57.18
2017-08-29T02:03:57.214Z,56.99
2017-08-29T02:05:51.695Z,57.18
2017-08-29T02:06:51.703Z,57.37
2017-08-29T02:08:46.158Z,57.67
2017-08-29T02:09:46.223Z,57.37
2017-08-29T02:11:39.703Z,57.57
2017-08-29T02:12:39.703Z,57.95
2017-08-29T02:14:34.167Z,57.86
2017-08-29T02:15:34.199Z,57.73
2017-08-29T02:17:28.687Z,57.54
2017-08-29T02:18:28.703Z,57.64
2017-08-29T02:20:23.208Z,57.54
2017-08-29T02:21:23.200Z,57.67
2017-08-29T02:23:16.687Z,58.02
2017-08-29T02:24:16.719Z,57.54
2017-08-29T02:26:11.215Z,57.54
2017-08-29T02:27:11.232Z,58.50
2017-08-29T02:29:05.760Z,58.02
2017-08-29T02:30:05.753Z,58.40
2017-08-29T02:32:00.184Z,57.92
2017-08-29T02:33:00.208Z,58.12
2017-08-29T02:34:54.723Z,58.22
2017-08-29T02:35:54.713Z,58.89
2017-08-29T02:37:49.169Z,58.60
2017-08-29T02:38:49.216Z,58.70
2017-08-29T02:40:43.704Z,58.60
2017-08-29T02:41:43.712Z,58.89
2017-08-29T02:43:38.184Z,58.40
2017-08-29T02:44:38.304Z,58.98
2017-08-29T02:46:32.696Z,59.08
2017-08-29T02:47:32.720Z,58.79
2017-08-29T02:49:27.217Z,58.70
2017-08-29T02:50:27.240Z,58.50
2017-08-29T02:52:21.719Z,59.27
2017-08-29T02:53:21.713Z,58.89
2017-08-29T02:55:16.177Z,58.57
2017-08-29T02:56:16.217Z,59.08
2017-08-29T02:58:10.721Z,59.17
2017-08-29T02:59:10.722Z,59.08
2017-08-29T03:01:05.201Z,59.27
2017-08-29T03:02:05.226Z,59.85
2017-08-29T03:03:59.705Z,59.75
2017-08-29T03:04:59.721Z,59.63
2017-08-29T03:06:54.177Z,59.94
2017-08-29T03:07:54.241Z,59.56
2017-08-29T03:09:50.185Z,59.56
2017-08-29T03:10:50.210Z,59.47
2017-08-29T03:12:46.322Z,60.04
2017-08-29T03:13:46.369Z,59.92
2017-08-29T03:15:39.761Z,59.53
2017-08-29T03:16:39.770Z,59.47
2017-08-29T03:18:34.234Z,59.72
2017-08-29T03:19:34.266Z,59.82
2017-08-29T03:21:28.754Z,59.63
2017-08-29T03:22:28.786Z,59.53
2017-08-29T03:24:23.226Z,60.01
2017-08-29T03:25:23.274Z,60.01
2017-08-29T03:27:17.762Z,59.82
2017-08-29T03:28:17.778Z,60.11
2017-08-29T03:30:11.219Z,60.30
2017-08-29T03:31:11.258Z,60.01
2017-08-29T03:33:05.755Z,60.11
2017-08-29T03:34:05.763Z,60.59
2017-08-29T03:36:00.226Z,60.69
2017-08-29T03:37:00.274Z,60.78
2017-08-29T03:38:54.723Z,60.78
2017-08-29T03:39:54.754Z,60.69
2017-08-29T03:41:50.235Z,60.78
2017-08-29T03:42:50.243Z,60.49
2017-08-29T03:44:44.731Z,60.69
2017-08-29T03:45:44.763Z,60.69
2017-08-29T03:47:39.228Z,60.39
2017-08-29T03:48:39.238Z,60.78
2017-08-29T03:50:33.691Z,60.78
2017-08-29T03:51:33.747Z,61.07
2017-08-29T03:53:28.235Z,60.59
2017-08-29T03:54:28.227Z,61.26
2017-08-29T03:56:21.684Z,60.88
2017-08-29T03:57:21.748Z,61.55
2017-08-29T03:59:16.219Z,61.16
2017-08-29T04:00:16.228Z,61.46
2017-08-29T04:02:10.691Z,61.23
2017-08-29T04:03:10.732Z,61.33
2017-08-29T04:05:05.196Z,61.43
2017-08-29T04:06:05.220Z,61.33
2017-08-29T04:07:59.748Z,61.61
2017-08-29T04:08:59.733Z,62.00
2017-08-29T04:10:54.172Z,62.58
2017-08-29T04:11:54.222Z,62.48
2017-08-29T04:13:50.332Z,62.10
2017-08-29T04:14:50.333Z,62.19
2017-08-29T04:16:44.740Z,62.48
2017-08-29T04:17:44.772Z,62.77
2017-08-29T04:19:39.252Z,62.87
2017-08-29T04:20:39.268Z,62.96
2017-08-29T04:22:32.748Z,63.64
2017-08-29T04:23:32.772Z,62.96
2017-08-29T04:25:27.220Z,63.54
2017-08-29T04:26:27.252Z,63.54
2017-08-29T04:28:21.733Z,63.45
2017-08-29T04:29:21.749Z,63.35
2017-08-29T04:31:18.877Z,63.73
2017-08-29T04:32:18.845Z,63.25
2017-08-29T04:34:12.285Z,63.64
2017-08-29T04:35:12.301Z,63.45
2017-08-29T04:37:06.781Z,63.54
2017-08-29T04:38:06.805Z,64.22
2017-08-29T04:40:01.254Z,63.92
2017-08-29T04:41:01.297Z,63.83
2017-08-29T04:42:55.789Z,63.73
2017-08-29T04:43:55.806Z,63.73
2017-08-29T04:45:50.304Z,63.64
2017-08-29T04:46:50.317Z,63.92
2017-08-29T04:48:44.789Z,63.64
2017-08-29T04:49:44.877Z,63.54
2017-08-29T04:51:39.270Z,64.12
2017-08-29T04:52:39.285Z,64.31
2017-08-29T04:54:32.773Z,63.73
2017-08-29T04:55:32.797Z,64.22
2017-08-29T04:57:27.279Z,64.02
2017-08-29T04:58:27.302Z,64.50
2017-08-29T05:00:21.766Z,64.40
2017-08-29T05:01:21.806Z,64.98
2017-08-29T05:03:16.294Z,64.50
2017-08-29T05:04:16.318Z,64.31
2017-08-29T05:06:10.769Z,64.60
2017-08-29T05:07:10.809Z,64.98
2017-08-29T05:09:05.271Z,64.22
2017-08-29T05:10:05.294Z,64.31
2017-08-29T05:11:59.750Z,64.50
2017-08-29T05:12:59.798Z,64.40
2017-08-29T05:14:54.271Z,64.79
2017-08-29T05:15:54.279Z,64.60
2017-08-29T05:17:48.775Z,65.37
2017-08-29T05:18:48.783Z,64.69
2017-08-29T05:20:43.231Z,64.98
2017-08-29T05:21:43.270Z,64.79
2017-08-29T05:23:37.751Z,65.27
2017-08-29T05:24:37.775Z,65.56
2017-08-29T05:26:31.223Z,65.27
2017-08-29T05:27:31.256Z,65.46
2017-08-29T05:29:25.727Z,65.75
2017-08-29T05:30:25.743Z,65.37
2017-08-29T05:32:19.215Z,65.17
2017-08-29T05:33:19.247Z,66.14
2017-08-29T05:35:13.727Z,65.46
2017-08-29T05:36:13.751Z,65.75
2017-08-29T05:38:08.208Z,65.37
2017-08-29T05:39:08.248Z,65.75
2017-08-29T05:41:02.720Z,66.04
2017-08-29T05:42:02.743Z,65.94
2017-08-29T05:43:57.395Z,65.56
2017-08-29T05:44:57.440Z,65.84
2017-08-29T05:46:51.920Z,66.42
2017-08-29T05:47:51.944Z,66.23
2017-08-29T05:49:45.392Z,66.23
2017-08-29T05:50:45.424Z,66.61
2017-08-29T05:52:39.912Z,66.04
2017-08-29T05:53:39.949Z,66.91
2017-08-29T05:55:34.453Z,66.14
2017-08-29T05:56:34.511Z,66.23
2017-08-29T05:58:30.567Z,66.42
2017-08-29T05:59:30.495Z,66.61
2017-08-29T06:01:24.023Z,66.04
2017-08-29T06:02:24.071Z,66.42
2017-08-29T06:04:18.528Z,66.74
2017-08-29T06:05:18.559Z,66.91
2017-08-29T06:07:13.016Z,66.65
2017-08-29T06:08:13.056Z,66.84
2017-08-29T06:10:06.543Z,66.74
2017-08-29T06:11:06.565Z,66.55
2017-08-29T06:13:01.008Z,66.36
2017-08-29T06:14:01.048Z,67.03
2017-08-29T06:15:55.553Z,66.84
2017-08-29T06:16:55.560Z,67.13
2017-08-29T06:18:50.024Z,67.32
2017-08-29T06:19:50.056Z,67.32
2017-08-29T06:21:44.537Z,66.84
2017-08-29T06:22:44.561Z,67.16
2017-08-29T06:24:39.023Z,66.97
2017-08-29T06:25:39.065Z,67.16
2017-08-29T06:27:32.569Z,67.07
2017-08-29T06:28:32.585Z,66.78
2017-08-29T06:30:30.665Z,67.93
2017-08-29T06:31:27.049Z,67.74
2017-08-29T06:33:21.089Z,67.83
2017-08-29T06:34:20.600Z,68.13
2017-08-29T06:36:15.108Z,67.83
2017-08-29T06:37:15.129Z,68.22
2017-08-29T06:39:09.625Z,68.32
2017-08-29T06:40:09.665Z,68.32
2017-08-29T06:42:04.137Z,68.26
2017-08-29T06:43:04.265Z,68.16
2017-08-29T06:44:58.659Z,68.35
2017-08-29T06:45:58.673Z,69.22
2017-08-29T06:47:53.145Z,68.64
2017-08-29T06:48:53.177Z,68.93
2017-08-29T06:50:46.669Z,68.93
2017-08-29T06:51:46.681Z,69.02
2017-08-29T06:53:41.179Z,69.15
2017-08-29T06:54:41.210Z,69.02
2017-08-29T06:56:35.826Z,69.06
2017-08-29T06:57:35.714Z,69.15
2017-08-29T06:59:30.162Z,69.15
2017-08-29T07:00:30.218Z,68.87
2017-08-29T07:02:26.290Z,69.54
2017-08-29T07:03:26.322Z,68.96
2017-08-29T07:05:19.730Z,68.68
2017-08-29T07:06:19.762Z,69.15
2017-08-29T07:08:14.250Z,69.38
2017-08-29T07:09:14.306Z,69.29
2017-08-29T07:11:08.730Z,69.19
2017-08-29T07:12:08.778Z,69.09
2017-08-29T07:14:03.266Z,68.80
2017-08-29T07:15:03.290Z,68.52
2017-08-29T07:16:59.362Z,68.55
2017-08-29T07:17:59.402Z,68.55
2017-08-29T07:19:53.835Z,68.16
2017-08-29T07:20:53.882Z,68.35
2017-08-29T07:22:47.548Z,68.35
2017-08-29T07:23:47.559Z,68.35
2017-08-29T07:25:42.191Z,68.07
2017-08-29T07:26:42.224Z,67.52
2017-08-29T07:28:41.988Z,67.91
2017-08-29T07:29:36.635Z,68.19
2017-08-29T07:31:31.051Z,67.14
2017-08-29T07:32:31.611Z,67.52
2017-08-29T07:34:25.596Z,66.78
2017-08-29T07:35:25.628Z,66.30
2017-08-29T07:37:21.259Z,67.27
2017-08-29T07:38:22.021Z,67.07
2017-08-29T07:40:15.308Z,67.36
2017-08-29T07:41:15.863Z,67.17
2017-08-29T07:43:08.371Z,66.40
2017-08-29T07:44:09.339Z,66.91
2017-08-29T07:46:01.827Z,66.53
2017-08-29T07:47:02.323Z,66.14
2017-08-29T07:49:44.588Z,66.33
2017-08-29T07:50:44.652Z,65.40
2017-08-29T07:52:38.307Z,65.50
2017-08-29T07:53:38.335Z,65.69
2017-08-29T07:55:32.067Z,65.11
2017-08-29T07:56:42.107Z,64.72
2017-08-29T07:58:38.643Z,64.76
2017-08-29T08:00:56.339Z,64.47
2017-08-29T08:01:57.094Z,63.69
2017-08-29T08:03:50.835Z,63.92
2017-08-29T08:04:50.795Z,62.85
2017-08-29T08:06:45.364Z,63.05
2017-08-29T08:07:45.371Z,62.47
2017-08-29T08:09:39.763Z,62.66
2017-08-29T08:10:39.824Z,62.40
2017-08-29T08:12:34.320Z,61.82
2017-08-29T08:13:34.345Z,62.53
2017-08-29T08:15:27.794Z,61.76
2017-08-29T08:16:27.833Z,61.69
2017-08-29T08:18:22.137Z,61.21
2017-08-29T08:19:22.129Z,61.11
2017-08-29T08:21:16.641Z,60.33
2017-08-29T08:22:16.705Z,60.33
2017-08-29T08:24:11.701Z,59.75
2017-08-29T08:25:11.594Z,60.07
2017-08-29T08:27:06.041Z,59.49
2017-08-29T08:28:06.089Z,59.30
2017-08-29T08:30:00.593Z,59.33
2017-08-29T08:31:00.616Z,58.74
2017-08-29T08:32:55.104Z,57.87
2017-08-29T08:33:55.624Z,58.36
2017-08-29T08:35:49.611Z,57.58
2017-08-29T08:36:49.665Z,57.90
2017-08-29T08:38:44.505Z,57.03
2017-08-29T08:39:44.209Z,56.45
2017-08-29T08:41:38.656Z,55.87
2017-08-29T08:42:38.659Z,56.28
2017-08-29T08:44:33.251Z,55.82
2017-08-29T08:45:33.219Z,55.92
2017-08-29T08:47:29.299Z,55.73
2017-08-29T08:48:29.347Z,55.63
2017-08-29T08:50:22.820Z,55.17
2017-08-29T08:51:22.845Z,55.07
2017-08-29T08:53:18.939Z,54.10
2017-08-29T08:54:18.971Z,53.91
2017-08-29T08:56:13.410Z,53.16
2017-08-29T08:57:13.442Z,53.35
2017-08-29T08:59:08.499Z,52.50
2017-08-29T09:00:07.987Z,52.40
2017-08-29T09:02:02.451Z,51.62
2017-08-29T09:03:02.475Z,51.65
2017-08-29T09:04:56.971Z,50.68
2017-08-29T09:05:56.996Z,50.48
2017-08-29T09:07:51.483Z,50.41
2017-08-29T09:08:51.507Z,50.12
2017-08-29T09:10:47.491Z,49.66
2017-08-29T09:11:47.051Z,48.68
2017-08-29T09:13:40.539Z,48.29
2017-08-29T09:14:40.548Z,48.22
2017-08-29T09:16:35.003Z,47.44
2017-08-29T09:17:35.066Z,47.07
2017-08-29T09:19:29.555Z,46.69
2017-08-29T09:20:29.571Z,46.59
2017-08-29T09:22:24.540Z,46.02
2017-08-29T09:23:24.112Z,45.44
2017-08-29T09:25:18.687Z,45.65
2017-08-29T09:26:18.708Z,45.26
2017-08-29T09:28:13.187Z,44.97
2017-08-29T09:29:13.227Z,44.60
2017-08-29T09:31:07.691Z,44.82
2017-08-29T09:32:07.731Z,44.24
2017-08-29T09:34:02.235Z,43.67
2017-08-29T09:35:02.251Z,41.82
2017-08-29T09:36:56.723Z,42.52
2017-08-29T09:37:56.771Z,41.44
2017-08-29T09:39:51.267Z,42.15
2017-08-29T09:40:51.299Z,42.05
2017-08-29T09:42:45.773Z,41.46
2017-08-29T09:43:45.812Z,42.76
2017-08-29T09:45:40.307Z,39.25
2017-08-29T09:46:40.331Z,38.76
2017-08-29T09:48:34.835Z,39.66
2017-08-29T09:49:34.875Z,39.07
2017-08-29T09:51:29.332Z,37.52
2017-08-29T09:52:29.387Z,37.45
2017-08-29T09:54:23.876Z,37.15
2017-08-29T09:55:23.892Z,35.97
2017-08-29T09:57:18.412Z,34.70
2017-08-29T09:58:18.437Z,33.94
2017-08-29T10:00:13.069Z,33.92
2017-08-29T10:01:12.996Z,34.42
2017-08-29T10:03:07.485Z,33.18
2017-08-29T10:04:07.564Z,33.10
2017-08-29T10:06:01.964Z,33.02
2017-08-29T10:07:02.814Z,32.74
2017-08-29T10:09:03.148Z,31.48
2017-08-29T10:10:04.420Z,27.94
2017-08-29T10:11:56.629Z,29.82
2017-08-29T10:12:56.661Z,28.05
2017-08-29T10:14:51.197Z,27.75
2017-08-29T10:15:51.229Z,27.95
2017-08-29T10:17:44.493Z,27.86
2017-08-29T10:18:44.517Z,28.08
2017-08-29T10:20:39.004Z,26.23
2017-08-29T10:21:39.029Z,25.63
2017-08-29T10:23:32.533Z,24.75
2017-08-29T10:24:32.573Z,25.15
2017-08-29T10:26:27.045Z,23.90
2017-08-29T10:27:27.101Z,24.49
2017-08-29T10:29:20.613Z,24.30
2017-08-29T10:30:20.653Z,22.62
2017-08-29T10:32:15.117Z,22.05
2017-08-29T10:33:15.157Z,20.87
2017-08-29T10:35:09.661Z,22.36
2017-08-29T10:36:09.701Z,20.68
2017-08-29T10:38:04.221Z,20.30
2017-08-29T10:39:04.246Z,19.31
2017-08-29T10:40:58.725Z,18.02
2017-08-29T10:41:58.765Z,19.73
2017-08-29T10:43:53.286Z,19.92
2017-08-29T10:44:53.301Z,19.24
2017-08-29T10:46:47.814Z,19.05
2017-08-29T10:47:47.862Z,18.46
2017-08-29T10:49:42.565Z,18.08
2017-08-29T10:50:42.415Z,17.99
2017-08-29T10:52:36.925Z,18.31
2017-08-29T10:53:36.950Z,17.82
2017-08-29T10:55:31.406Z,16.53
2017-08-29T10:56:31.446Z,16.84
2017-08-29T10:58:26.055Z,17.14
2017-08-29T10:59:25.998Z,15.86
2017-08-29T11:01:20.505Z,14.67
2017-08-29T11:02:20.526Z,15.27
2017-08-29T11:04:15.043Z,14.38
2017-08-29T11:05:15.150Z,14.49
2017-08-29T11:07:09.582Z,13.60
2017-08-29T11:08:09.598Z,13.41
2017-08-29T11:10:05.655Z,13.32
2017-08-29T11:11:05.640Z,12.62
2017-08-29T11:13:00.158Z,12.32
2017-08-29T11:14:00.223Z,12.13
2017-08-29T11:15:54.703Z,12.02
2017-08-29T11:16:54.743Z,12.54
2017-08-29T11:18:49.279Z,10.94
2017-08-29T11:19:49.333Z,11.95
2017-08-29T11:21:42.805Z,9.94
2017-08-29T11:22:42.832Z,11.46
2017-08-29T11:24:37.448Z,9.86
2017-08-29T11:25:37.383Z,9.37
2017-08-29T11:27:31.895Z,9.17
2017-08-29T11:28:31.911Z,9.28
2017-08-29T11:30:26.399Z,8.87
2017-08-29T11:31:26.463Z,9.19
2017-08-29T11:33:22.480Z,7.17
2017-08-29T11:34:22.473Z,7.38
2017-08-29T11:36:16.960Z,7.18
2017-08-29T11:37:17.015Z,6.47
2017-08-29T11:39:11.544Z,6.77
2017-08-29T11:40:11.560Z,6.88
2017-08-29T11:42:06.048Z,7.18
2017-08-29T11:43:06.096Z,7.09
2017-08-29T11:45:00.632Z,6.48
2017-08-29T11:46:00.632Z,5.36
2017-08-29T11:47:55.120Z,7.29
2017-08-29T11:48:55.176Z,6.28
2017-08-29T11:50:49.704Z,5.07
2017-08-29T11:51:49.728Z,7.01
2017-08-29T11:53:44.232Z,5.50
2017-08-29T11:54:44.264Z,5.10
2017-08-29T11:56:38.792Z,4.19
2017-08-29T11:57:38.793Z,3.57
2017-08-29T11:59:33.281Z,2.66
2017-08-29T12:00:33.337Z,3.98
2017-08-29T12:02:26.857Z,3.89
2017-08-29T12:03:26.873Z,2.76
2017-08-29T12:05:21.354Z,2.86
2017-08-29T12:06:21.409Z,2.36
2017-08-29T12:08:15.920Z,2.66
2017-08-29T12:09:15.953Z,2.66
2017-08-29T12:11:10.481Z,2.56
2017-08-29T12:12:10.505Z,2.76
2017-08-29T12:14:04.970Z,2.04
2017-08-29T12:15:05.026Z,1.95
2017-08-29T12:16:59.538Z,1.74
2017-08-29T12:17:59.570Z,1.54
2017-08-29T12:19:54.050Z,1.12
2017-08-29T12:20:54.106Z,2.04
2017-08-29T12:22:47.658Z,1.94
2017-08-29T12:23:47.642Z,2.04
2017-08-29T12:25:42.129Z,1.84
2017-08-29T12:26:42.192Z,2.56
2017-08-29T12:28:36.690Z,1.74
2017-08-29T12:29:36.727Z,2.36
2017-08-29T12:31:31.226Z,2.36
2017-08-29T12:32:31.282Z,1.13
2017-08-29T12:34:25.882Z,1.34
2017-08-29T12:35:25.802Z,1.34
2017-08-29T12:37:20.299Z,1.34
2017-08-29T12:38:20.354Z,0.72
2017-08-29T12:40:14.835Z,0.72
2017-08-29T12:41:14.882Z,0.00
2017-08-29T12:43:09.387Z,0.41
2017-08-29T12:44:09.427Z,0.00
2017-08-29T12:46:03.917Z,0.00
2017-08-29T12:47:03.980Z,0.00
2017-08-29T12:48:58.483Z,1.23
2017-08-29T12:49:58.523Z,0.00
2017-08-29T12:51:52.005Z,0.00
2017-08-29T12:52:52.052Z,0.10
2017-08-29T12:54:46.571Z,0.41
2017-08-29T12:55:46.590Z,0.10
2017-08-29T12:57:41.067Z,1.14
2017-08-29T12:58:41.123Z,0.00
2017-08-29T13:00:34.623Z,0.00
2017-08-29T13:01:34.668Z,0.00
2017-08-29T13:03:29.172Z,1.03
2017-08-29T13:04:29.212Z,0.00
2017-08-29T13:06:22.691Z,0.00
2017-08-29T13:07:22.739Z,0.10
2017-08-29T13:09:16.300Z,0.93
2017-08-29T13:10:16.332Z,0.00
2017-08-29T13:12:12.372Z,0.20
2017-08-29T13:13:12.380Z,0.00
2017-08-29T13:15:05.900Z,1.34
2017-08-29T13:16:05.934Z,0.82
2017-08-29T13:18:00.444Z,0.51
2017-08-29T13:19:00.476Z,1.03
2017-08-29T13:20:55.012Z,0.20
2017-08-29T13:21:55.028Z,0.00
2017-08-29T13:23:49.548Z,1.13
2017-08-29T13:24:49.581Z,0.71
2017-08-29T13:26:45.572Z,1.03
2017-08-29T13:27:45.630Z,0.71
2017-08-29T13:29:40.173Z,0.31
2017-08-29T13:30:40.164Z,0.10
2017-08-29T13:32:34.677Z,0.20
2017-08-29T13:33:34.717Z,0.10
2017-08-29T13:35:29.229Z,0.61
2017-08-29T13:36:29.261Z,0.00
2017-08-29T13:38:23.803Z,0.92
2017-08-29T13:39:23.837Z,1.32
2017-08-29T13:41:18.285Z,2.54
2017-08-29T13:42:18.349Z,2.44
2017-08-29T13:44:12.853Z,3.55
2017-08-29T13:45:12.883Z,3.85
2017-08-29T13:47:07.362Z,3.64
2017-08-29T13:48:07.410Z,3.84
2017-08-29T13:50:01.927Z,4.94
2017-08-29T13:51:01.954Z,5.94
2017-08-29T13:52:56.427Z,7.14
2017-08-29T13:53:56.491Z,6.74
2017-08-29T13:55:50.979Z,7.92
2017-08-29T13:56:51.027Z,8.91
2017-08-29T13:58:45.563Z,8.60
2017-08-29T13:59:45.611Z,8.80
2017-08-29T14:01:40.076Z,8.81
2017-08-29T14:02:40.123Z,10.80
2017-08-29T14:04:34.627Z,10.80
2017-08-29T14:05:34.651Z,10.10
2017-08-29T14:07:29.139Z,10.71
2017-08-29T14:08:29.187Z,10.21
2017-08-29T14:10:22.723Z,10.62
2017-08-29T14:11:22.750Z,9.83
2017-08-29T14:13:17.203Z,9.14
2017-08-29T14:14:17.253Z,8.44
2017-08-29T14:16:10.772Z,7.94
2017-08-29T14:17:10.787Z,7.93
2017-08-29T14:19:06.780Z,7.74
2017-08-29T14:20:06.812Z,7.24
2017-08-29T14:22:00.332Z,6.94
2017-08-29T14:23:00.348Z,7.74
2017-08-29T14:25:06.381Z,7.82
2017-08-29T14:26:06.396Z,8.62
2017-08-29T14:28:00.909Z,8.51
2017-08-29T14:29:00.917Z,8.31
2017-08-29T14:30:55.429Z,9.70
2017-08-29T14:31:55.452Z,9.09
2017-08-29T14:33:48.932Z,9.48
2017-08-29T14:34:49.157Z,10.68
2017-08-29T14:36:43.485Z,11.47
2017-08-29T14:37:43.508Z,10.16
2017-08-29T14:39:37.975Z,11.85
2017-08-29T14:40:38.991Z,12.04
2017-08-29T14:42:32.543Z,12.33
2017-08-29T14:43:32.543Z,12.73
2017-08-29T14:45:26.015Z,13.81
2017-08-29T14:46:26.063Z,13.90
2017-08-29T14:48:20.559Z,14.07
2017-08-29T14:49:20.592Z,14.97
2017-08-29T14:51:15.111Z,15.17
2017-08-29T14:52:15.135Z,14.96
2017-08-29T14:54:09.616Z,15.45
2017-08-29T14:55:09.680Z,15.94
2017-08-29T14:57:04.280Z,15.73
2017-08-29T14:58:04.191Z,15.94
2017-08-29T14:59:57.672Z,16.53
2017-08-29T15:00:57.736Z,16.03
2017-08-29T15:02:52.216Z,16.63
2017-08-29T15:03:52.225Z,16.72
2017-08-29T15:05:46.724Z,16.71
2017-08-29T15:06:46.744Z,17.60
2017-08-29T15:08:41.216Z,17.50
2017-08-29T15:09:41.263Z,17.40
2017-08-29T15:11:35.769Z,17.50
2017-08-29T15:12:35.808Z,18.50
2017-08-29T15:14:29.640Z,17.21
2017-08-29T15:15:29.328Z,18.19
2017-08-29T15:17:23.881Z,18.29
2017-08-29T15:18:23.841Z,17.99
2017-08-29T15:20:18.320Z,17.40
2017-08-29T15:21:18.450Z,17.91
2017-08-29T15:23:11.873Z,17.71
2017-08-29T15:24:11.889Z,17.31
2017-08-29T15:26:06.361Z,17.61
2017-08-29T15:27:06.409Z,17.60
2017-08-29T15:29:00.897Z,18.01
2017-08-29T15:30:00.922Z,17.50
2017-08-29T15:31:56.945Z,18.01
2017-08-29T15:32:56.945Z,17.21
2017-08-29T15:34:51.466Z,17.61
2017-08-29T15:35:51.474Z,16.81
2017-08-29T15:37:47.001Z,16.90
2017-08-29T15:38:46.113Z,17.98
2017-08-29T15:40:40.626Z,18.17
2017-08-29T15:41:40.649Z,18.66
2017-08-29T15:43:35.136Z,18.27
2017-08-29T15:44:35.178Z,18.66
2017-08-29T15:46:28.658Z,18.84
2017-08-29T15:47:28.698Z,19.13
2017-08-29T15:49:23.210Z,19.93
2017-08-29T15:50:24.138Z,20.21
2017-08-29T15:52:17.713Z,20.11
2017-08-29T15:53:17.762Z,20.11
2017-08-29T15:55:12.258Z,20.70
2017-08-29T15:56:12.282Z,20.60
2017-08-29T15:58:06.754Z,21.29
2017-08-29T15:59:06.795Z,20.88
2017-08-29T16:01:00.346Z,21.77
2017-08-29T16:02:00.346Z,21.86
2017-08-29T16:03:54.314Z,22.44
2017-08-29T16:04:54.034Z,22.44
2017-08-29T16:06:48.706Z,23.13
2017-08-29T16:07:48.442Z,23.42
2017-08-29T16:09:41.682Z,22.63
2017-08-29T16:10:41.459Z,22.73
2017-08-29T16:12:35.971Z,22.63
2017-08-29T16:13:36.003Z,22.63
2017-08-29T16:15:30.555Z,22.53
2017-08-29T16:16:30.507Z,22.42
2017-08-29T16:18:24.043Z,23.30
2017-08-29T16:19:24.075Z,23.31
2017-08-29T16:21:18.539Z,23.21
2017-08-29T16:22:18.667Z,23.61
2017-08-29T16:24:13.052Z,23.41
2017-08-29T16:25:13.099Z,22.91
2017-08-29T16:27:06.588Z,23.40
2017-08-29T16:28:06.620Z,23.20
2017-08-29T16:30:01.100Z,23.30
2017-08-29T16:31:01.139Z,24.27
2017-08-29T16:32:54.635Z,23.68
2017-08-29T16:33:54.660Z,23.86
2017-08-29T16:35:49.159Z,24.65
2017-08-29T16:36:49.180Z,24.95
2017-08-29T16:38:42.660Z,24.75
2017-08-29T16:39:42.700Z,25.05
2017-08-29T16:41:37.188Z,25.05
2017-08-29T16:42:37.212Z,24.75
2017-08-29T16:44:30.691Z,25.83
2017-08-29T16:45:30.724Z,24.95
2017-08-29T16:47:25.220Z,24.95
2017-08-29T16:48:25.236Z,25.24
2017-08-29T16:50:19.716Z,25.73
2017-08-29T16:51:19.764Z,25.83
2017-08-29T16:53:14.253Z,25.62
2017-08-29T16:54:14.276Z,26.11
2017-08-29T16:56:08.765Z,25.52
2017-08-29T16:57:08.813Z,26.11
2017-08-29T16:59:03.309Z,26.41
2017-08-29T17:00:03.333Z,26.29
2017-08-29T17:01:57.807Z,26.98
2017-08-29T17:02:57.861Z,26.79
2017-08-29T17:04:52.349Z,26.79
2017-08-29T17:05:52.365Z,26.40
2017-08-29T17:07:46.877Z,26.89
2017-08-29T17:08:46.901Z,26.69
2017-08-29T17:10:41.357Z,26.69
2017-08-29T17:11:41.405Z,26.79
2017-08-29T17:13:35.917Z,26.89
2017-08-29T17:14:35.925Z,26.89
2017-08-29T17:16:30.397Z,27.47
2017-08-29T17:17:30.549Z,26.38
2017-08-29T17:19:24.997Z,26.97
2017-08-29T17:20:24.973Z,26.87
2017-08-29T17:22:19.501Z,27.17
2017-08-29T17:23:19.517Z,27.46
2017-08-29T17:25:14.021Z,28.15
2017-08-29T17:26:14.030Z,27.75
2017-08-29T17:28:07.865Z,27.56
2017-08-29T17:29:07.689Z,28.13
2017-08-29T17:31:02.185Z,28.03
2017-08-29T17:32:02.218Z,28.03
2017-08-29T17:33:58.186Z,30.58
2017-08-29T17:34:58.249Z,30.78
2017-08-29T17:36:52.842Z,31.17
2017-08-29T17:37:52.850Z,31.06
2017-08-29T17:39:47.330Z,30.67
2017-08-29T17:40:47.274Z,30.87
2017-08-29T17:42:40.794Z,31.35
2017-08-29T17:43:40.842Z,31.65
2017-08-29T17:45:35.466Z,31.84
2017-08-29T17:48:18.898Z,32.03
2017-08-29T17:49:18.930Z,31.93
2017-08-29T17:51:13.466Z,32.22
2017-08-29T17:52:13.474Z,32.22
2017-08-29T17:54:07.954Z,33.10
2017-08-29T17:55:07.978Z,33.79
2017-08-29T17:57:02.451Z,33.67
2017-08-29T17:58:02.499Z,33.77
2017-08-29T17:59:57.043Z,33.97
2017-08-29T18:00:57.035Z,33.95
2017-08-29T18:03:00.146Z,34.54
2017-08-29T18:03:51.547Z,34.24
2017-08-29T18:05:46.027Z,34.24
2017-08-29T18:06:46.066Z,34.14
2017-08-29T18:08:40.523Z,34.23
2017-08-29T18:09:40.579Z,34.72
2017-08-29T18:11:35.084Z,34.33
2017-08-29T18:12:35.083Z,34.81
2017-08-29T18:14:29.547Z,34.81
2017-08-29T18:15:29.612Z,34.70
2017-08-29T18:17:24.099Z,34.99
2017-08-29T18:18:24.115Z,34.89
2017-08-29T18:20:18.572Z,35.68
2017-08-29T18:21:18.619Z,35.87
2017-08-29T18:23:13.107Z,36.16
2017-08-29T18:24:13.147Z,36.16
2017-08-29T18:26:07.660Z,36.54
2017-08-29T18:27:07.683Z,37.12
2017-08-29T18:29:02.200Z,37.12
2017-08-29T18:30:02.212Z,37.32
2017-08-29T18:31:56.700Z,37.50
2017-08-29T18:32:56.736Z,37.70
2017-08-29T18:34:51.228Z,38.09
2017-08-29T18:35:51.244Z,37.99
2017-08-29T18:37:45.716Z,38.67
2017-08-29T18:38:45.749Z,38.09
2017-08-29T18:40:40.332Z,38.16
2017-08-29T18:41:40.348Z,38.75
2017-08-29T18:43:34.828Z,38.55
2017-08-29T18:44:34.876Z,38.55
2017-08-29T18:46:29.349Z,38.94
2017-08-29T18:47:29.388Z,39.33
2017-08-29T18:49:22.869Z,39.12
2017-08-29T18:50:22.901Z,39.51
2017-08-29T18:52:17.388Z,39.51